Ladson, South Carolina
Current Conditions -  °F | °C
As of 4:56 PM on Thursday 27 Nov 2014 (Local Time) from KCHS Reporting Station
Few Clouds Few Clouds  
Wind Chill: 52°   Ceiling: Unl
Heat Index: 52°   Visibility: 10mi
Dew Point: 30°   Wind: 13mph
Humidity: 43%   Direction: 320°NW
Pressure: 30.17"   Gusts: NA
Location:  33.01°N, 80.13°W
Report Text: KCHS 272156Z 32011KT 10SM FEW060 11/M01 A3017 RMK AO2 SLP214 T01111011
Loading
Personal Weather Stations






























Interactive Weather Map New forecast layout! Learn more

10-Day Weather Forecast

Advertisements
Track Severe Weather on mobile